sensor_id;sensor_type;location;lat;lon;timestamp;P1;durP1;ratioP1;P2;durP2;ratioP2
61317;SDS011;47201;40.428;-8.436;2023-09-08T00:00:33;12.17;;;6.43;;
61317;SDS011;47201;40.428;-8.436;2023-09-08T00:02:34;17.48;;;7.20;;
61317;SDS011;47201;40.428;-8.436;2023-09-08T00:04:35;11.65;;;6.45;;
61317;SDS011;47201;40.428;-8.436;2023-09-08T00:08:36;14.30;;;5.67;;
61317;SDS011;47201;40.428;-8.436;2023-09-08T00:10:36;8.20;;;5.30;;
61317;SDS011;47201;40.428;-8.436;2023-09-08T00:12:37;7.78;;;5.40;;
61317;SDS011;47201;40.428;-8.436;2023-09-08T00:14:38;10.95;;;6.68;;
61317;SDS011;47201;40.428;-8.436;2023-09-08T00:16:39;16.83;;;6.53;;
61317;SDS011;47201;40.428;-8.436;2023-09-08T00:18:42;10.02;;;5.90;;
61317;SDS011;47201;40.428;-8.436;2023-09-08T00:20:43;18.85;;;6.53;;
61317;SDS011;47201;40.428;-8.436;2023-09-08T00:24:44;11.20;;;5.37;;
61317;SDS011;47201;40.428;-8.436;2023-09-08T00:28:45;10.10;;;5.50;;
61317;SDS011;47201;40.428;-8.436;2023-09-08T00:30:47;11.52;;;5.82;;
61317;SDS011;47201;40.428;-8.436;2023-09-08T00:32:47;10.43;;;5.88;;
61317;SDS011;47201;40.428;-8.436;2023-09-08T00:36:49;13.77;;;5.57;;
61317;SDS011;47201;40.428;-8.436;2023-09-08T00:40:50;14.80;;;5.87;;
61317;SDS011;47201;40.428;-8.436;2023-09-08T00:42:51;13.82;;;5.88;;
61317;SDS011;47201;40.428;-8.436;2023-09-08T00:44:51;10.70;;;5.30;;
61317;SDS011;47201;40.428;-8.436;2023-09-08T00:48:53;12.57;;;6.00;;
61317;SDS011;47201;40.428;-8.436;2023-09-08T00:50:55;10.90;;;6.07;;
61317;SDS011;47201;40.428;-8.436;2023-09-08T00:52:57;7.35;;;5.53;;
61317;SDS011;47201;40.428;-8.436;2023-09-08T00:54:58;10.55;;;5.90;;
61317;SDS011;47201;40.428;-8.436;2023-09-08T00:56:59;10.85;;;5.90;;
61317;SDS011;47201;40.428;-8.436;2023-09-08T00:59:04;8.05;;;6.00;;
61317;SDS011;47201;40.428;-8.436;2023-09-08T01:01:05;19.33;;;7.05;;
61317;SDS011;47201;40.428;-8.436;2023-09-08T01:03:06;11.43;;;6.03;;
61317;SDS011;47201;40.428;-8.436;2023-09-08T01:05:07;8.60;;;5.72;;
61317;SDS011;47201;40.428;-8.436;2023-09-08T01:07:08;11.60;;;7.28;;
61317;SDS011;47201;40.428;-8.436;2023-09-08T01:09:09;9.18;;;6.82;;
61317;SDS011;47201;40.428;-8.436;2023-09-08T01:11:11;12.43;;;7.25;;
61317;SDS011;47201;40.428;-8.436;2023-09-08T01:13:11;13.10;;;7.32;;
61317;SDS011;47201;40.428;-8.436;2023-09-08T01:15:12;15.68;;;7.95;;
61317;SDS011;47201;40.428;-8.436;2023-09-08T01:17:13;13.30;;;7.95;;
61317;SDS011;47201;40.428;-8.436;2023-09-08T01:19:13;13.60;;;8.80;;
61317;SDS011;47201;40.428;-8.436;2023-09-08T01:21:45;12.55;;;8.38;;
61317;SDS011;47201;40.428;-8.436;2023-09-08T01:26:24;21.08;;;11.93;;
61317;SDS011;47201;40.428;-8.436;2023-09-08T01:28:31;18.60;;;10.57;;
61317;SDS011;47201;40.428;-8.436;2023-09-08T01:30:32;22.50;;;11.35;;
61317;SDS011;47201;40.428;-8.436;2023-09-08T01:32:34;18.40;;;10.85;;
61317;SDS011;47201;40.428;-8.436;2023-09-08T01:34:36;23.95;;;10.85;;
61317;SDS011;47201;40.428;-8.436;2023-09-08T01:36:39;14.10;;;10.07;;
61317;SDS011;47201;40.428;-8.436;2023-09-08T01:38:40;15.88;;;10.18;;
61317;SDS011;47201;40.428;-8.436;2023-09-08T01:40:41;17.17;;;10.82;;
61317;SDS011;47201;40.428;-8.436;2023-09-08T01:42:42;19.83;;;10.32;;
61317;SDS011;47201;40.428;-8.436;2023-09-08T01:44:42;13.35;;;10.07;;
61317;SDS011;47201;40.428;-8.436;2023-09-08T01:46:44;22.80;;;10.60;;
61317;SDS011;47201;40.428;-8.436;2023-09-08T01:48:45;20.27;;;11.73;;
61317;SDS011;47201;40.428;-8.436;2023-09-08T01:50:46;18.30;;;11.05;;
61317;SDS011;47201;40.428;-8.436;2023-09-08T01:52:48;18.38;;;10.93;;
61317;SDS011;47201;40.428;-8.436;2023-09-08T01:54:49;19.60;;;11.07;;
61317;SDS011;47201;40.428;-8.436;2023-09-08T01:56:49;19.42;;;11.63;;
61317;SDS011;47201;40.428;-8.436;2023-09-08T01:58:51;16.20;;;10.65;;
61317;SDS011;47201;40.428;-8.436;2023-09-08T02:00:52;14.55;;;10.55;;
61317;SDS011;47201;40.428;-8.436;2023-09-08T02:02:53;16.30;;;10.63;;
61317;SDS011;47201;40.428;-8.436;2023-09-08T02:04:54;12.30;;;10.02;;
61317;SDS011;47201;40.428;-8.436;2023-09-08T02:06:55;16.90;;;10.75;;
61317;SDS011;47201;40.428;-8.436;2023-09-08T02:08:56;17.27;;;10.80;;
61317;SDS011;47201;40.428;-8.436;2023-09-08T02:10:56;18.13;;;11.00;;
61317;SDS011;47201;40.428;-8.436;2023-09-08T02:12:57;17.13;;;11.93;;
61317;SDS011;47201;40.428;-8.436;2023-09-08T02:14:58;19.65;;;11.90;;
61317;SDS011;47201;40.428;-8.436;2023-09-08T02:17:00;18.08;;;11.73;;
61317;SDS011;47201;40.428;-8.436;2023-09-08T02:19:00;18.50;;;12.07;;
61317;SDS011;47201;40.428;-8.436;2023-09-08T02:21:01;13.50;;;10.07;;
61317;SDS011;47201;40.428;-8.436;2023-09-08T02:23:05;22.65;;;11.88;;
61317;SDS011;47201;40.428;-8.436;2023-09-08T02:25:07;27.20;;;11.77;;
61317;SDS011;47201;40.428;-8.436;2023-09-08T02:27:08;17.60;;;9.18;;
61317;SDS011;47201;40.428;-8.436;2023-09-08T02:33:12;12.40;;;6.93;;
61317;SDS011;47201;40.428;-8.436;2023-09-08T02:35:13;13.68;;;6.47;;
61317;SDS011;47201;40.428;-8.436;2023-09-08T02:37:13;12.27;;;5.60;;
61317;SDS011;47201;40.428;-8.436;2023-09-08T02:39:14;12.25;;;5.97;;
61317;SDS011;47201;40.428;-8.436;2023-09-08T02:41:15;8.98;;;5.95;;
61317;SDS011;47201;40.428;-8.436;2023-09-08T02:43:15;12.10;;;6.60;;
61317;SDS011;47201;40.428;-8.436;2023-09-08T02:45:16;10.88;;;5.85;;
61317;SDS011;47201;40.428;-8.436;2023-09-08T02:47:17;14.05;;;6.00;;
61317;SDS011;47201;40.428;-8.436;2023-09-08T02:51:19;16.47;;;6.50;;
61317;SDS011;47201;40.428;-8.436;2023-09-08T02:53:19;12.57;;;6.05;;
61317;SDS011;47201;40.428;-8.436;2023-09-08T02:55:20;11.35;;;5.70;;
61317;SDS011;47201;40.428;-8.436;2023-09-08T02:57:21;12.27;;;5.53;;
61317;SDS011;47201;40.428;-8.436;2023-09-08T02:59:22;10.52;;;5.85;;
61317;SDS011;47201;40.428;-8.436;2023-09-08T03:01:22;10.93;;;5.68;;
61317;SDS011;47201;40.428;-8.436;2023-09-08T03:03:23;12.80;;;5.47;;
61317;SDS011;47201;40.428;-8.436;2023-09-08T03:05:24;13.82;;;6.03;;
61317;SDS011;47201;40.428;-8.436;2023-09-08T03:07:24;14.02;;;5.70;;
61317;SDS011;47201;40.428;-8.436;2023-09-08T03:09:25;6.72;;;5.30;;
61317;SDS011;47201;40.428;-8.436;2023-09-08T03:11:26;15.90;;;6.70;;
61317;SDS011;47201;40.428;-8.436;2023-09-08T03:13:26;10.30;;;5.80;;
61317;SDS011;47201;40.428;-8.436;2023-09-08T03:15:29;10.27;;;5.80;;
61317;SDS011;47201;40.428;-8.436;2023-09-08T03:17:32;10.90;;;5.78;;
61317;SDS011;47201;40.428;-8.436;2023-09-08T03:19:34;9.73;;;6.30;;
61317;SDS011;47201;40.428;-8.436;2023-09-08T03:21:35;8.52;;;6.03;;
61317;SDS011;47201;40.428;-8.436;2023-09-08T03:23:39;14.07;;;6.60;;
61317;SDS011;47201;40.428;-8.436;2023-09-08T03:25:41;11.25;;;6.35;;
61317;SDS011;47201;40.428;-8.436;2023-09-08T03:27:42;11.52;;;6.13;;
61317;SDS011;47201;40.428;-8.436;2023-09-08T03:29:43;13.63;;;6.47;;
61317;SDS011;47201;40.428;-8.436;2023-09-08T03:31:43;11.52;;;6.70;;
61317;SDS011;47201;40.428;-8.436;2023-09-08T03:33:44;10.23;;;6.20;;
61317;SDS011;47201;40.428;-8.436;2023-09-08T03:35:45;12.85;;;6.90;;
61317;SDS011;47201;40.428;-8.436;2023-09-08T03:37:46;14.93;;;7.13;;
61317;SDS011;47201;40.428;-8.436;2023-09-08T03:39:47;11.45;;;7.05;;
61317;SDS011;47201;40.428;-8.436;2023-09-08T03:41:47;11.30;;;6.85;;
61317;SDS011;47201;40.428;-8.436;2023-09-08T03:43:48;8.48;;;5.82;;
61317;SDS011;47201;40.428;-8.436;2023-09-08T03:45:49;11.70;;;6.85;;
61317;SDS011;47201;40.428;-8.436;2023-09-08T03:47:50;13.05;;;6.85;;
61317;SDS011;47201;40.428;-8.436;2023-09-08T03:49:51;14.00;;;6.95;;
61317;SDS011;47201;40.428;-8.436;2023-09-08T03:51:52;8.05;;;6.53;;
61317;SDS011;47201;40.428;-8.436;2023-09-08T03:53:53;12.65;;;7.13;;
61317;SDS011;47201;40.428;-8.436;2023-09-08T03:55:53;15.85;;;7.35;;
61317;SDS011;47201;40.428;-8.436;2023-09-08T03:57:54;11.73;;;6.82;;
61317;SDS011;47201;40.428;-8.436;2023-09-08T03:59:55;12.05;;;6.72;;
61317;SDS011;47201;40.428;-8.436;2023-09-08T04:01:56;10.52;;;7.00;;
61317;SDS011;47201;40.428;-8.436;2023-09-08T04:03:56;13.73;;;7.38;;
61317;SDS011;47201;40.428;-8.436;2023-09-08T04:05:57;16.88;;;7.07;;
61317;SDS011;47201;40.428;-8.436;2023-09-08T04:07:58;18.92;;;7.68;;
61317;SDS011;47201;40.428;-8.436;2023-09-08T04:09:59;15.05;;;7.22;;
61317;SDS011;47201;40.428;-8.436;2023-09-08T04:12:02;12.98;;;7.93;;
61317;SDS011;47201;40.428;-8.436;2023-09-08T04:14:04;21.40;;;7.93;;
61317;SDS011;47201;40.428;-8.436;2023-09-08T04:16:05;10.45;;;6.88;;
61317;SDS011;47201;40.428;-8.436;2023-09-08T04:18:06;11.35;;;7.38;;
61317;SDS011;47201;40.428;-8.436;2023-09-08T04:20:06;15.10;;;7.53;;
61317;SDS011;47201;40.428;-8.436;2023-09-08T04:22:08;11.27;;;7.15;;
61317;SDS011;47201;40.428;-8.436;2023-09-08T04:24:09;12.48;;;7.15;;
61317;SDS011;47201;40.428;-8.436;2023-09-08T04:26:11;11.32;;;7.05;;
61317;SDS011;47201;40.428;-8.436;2023-09-08T04:28:11;12.02;;;7.22;;
61317;SDS011;47201;40.428;-8.436;2023-09-08T04:30:12;9.13;;;6.57;;
61317;SDS011;47201;40.428;-8.436;2023-09-08T04:32:13;12.30;;;6.72;;
61317;SDS011;47201;40.428;-8.436;2023-09-08T04:34:14;10.60;;;7.13;;
61317;SDS011;47201;40.428;-8.436;2023-09-08T04:36:15;16.00;;;7.32;;
61317;SDS011;47201;40.428;-8.436;2023-09-08T04:38:16;11.15;;;6.70;;
61317;SDS011;47201;40.428;-8.436;2023-09-08T04:42:17;10.30;;;7.23;;
61317;SDS011;47201;40.428;-8.436;2023-09-08T04:44:18;13.35;;;7.32;;
61317;SDS011;47201;40.428;-8.436;2023-09-08T04:48:20;12.80;;;6.97;;
61317;SDS011;47201;40.428;-8.436;2023-09-08T04:50:20;17.20;;;7.72;;
61317;SDS011;47201;40.428;-8.436;2023-09-08T04:52:21;13.50;;;6.63;;
61317;SDS011;47201;40.428;-8.436;2023-09-08T04:54:22;11.52;;;6.82;;
61317;SDS011;47201;40.428;-8.436;2023-09-08T04:56:27;11.52;;;7.05;;
61317;SDS011;47201;40.428;-8.436;2023-09-08T04:58:27;11.35;;;7.00;;
61317;SDS011;47201;40.428;-8.436;2023-09-08T05:02:30;11.77;;;6.88;;
61317;SDS011;47201;40.428;-8.436;2023-09-08T05:04:31;13.93;;;7.85;;
61317;SDS011;47201;40.428;-8.436;2023-09-08T05:06:31;11.98;;;7.10;;
61317;SDS011;47201;40.428;-8.436;2023-09-08T05:08:32;11.55;;;7.07;;
61317;SDS011;47201;40.428;-8.436;2023-09-08T05:10:33;12.15;;;7.40;;
61317;SDS011;47201;40.428;-8.436;2023-09-08T05:14:35;10.73;;;7.05;;
61317;SDS011;47201;40.428;-8.436;2023-09-08T05:16:36;10.60;;;7.22;;
61317;SDS011;47201;40.428;-8.436;2023-09-08T05:18:39;10.05;;;7.03;;
61317;SDS011;47201;40.428;-8.436;2023-09-08T05:20:41;11.25;;;6.50;;
61317;SDS011;47201;40.428;-8.436;2023-09-08T05:22:42;14.70;;;7.55;;
61317;SDS011;47201;40.428;-8.436;2023-09-08T05:24:42;10.95;;;7.30;;
61317;SDS011;47201;40.428;-8.436;2023-09-08T05:26:43;14.48;;;7.72;;
61317;SDS011;47201;40.428;-8.436;2023-09-08T05:28:44;10.93;;;7.13;;
61317;SDS011;47201;40.428;-8.436;2023-09-08T05:32:45;12.73;;;7.77;;
61317;SDS011;47201;40.428;-8.436;2023-09-08T05:34:46;15.38;;;8.43;;
61317;SDS011;47201;40.428;-8.436;2023-09-08T05:36:47;16.58;;;8.55;;
61317;SDS011;47201;40.428;-8.436;2023-09-08T05:38:47;10.55;;;7.72;;
61317;SDS011;47201;40.428;-8.436;2023-09-08T05:40:48;12.98;;;7.10;;
61317;SDS011;47201;40.428;-8.436;2023-09-08T05:42:49;14.43;;;7.22;;
61317;SDS011;47201;40.428;-8.436;2023-09-08T05:44:50;10.57;;;7.40;;
61317;SDS011;47201;40.428;-8.436;2023-09-08T05:46:51;13.05;;;7.03;;
61317;SDS011;47201;40.428;-8.436;2023-09-08T05:48:52;11.32;;;7.18;;
61317;SDS011;47201;40.428;-8.436;2023-09-08T05:50:53;19.33;;;8.88;;
61317;SDS011;47201;40.428;-8.436;2023-09-08T05:52:53;17.95;;;9.20;;
61317;SDS011;47201;40.428;-8.436;2023-09-08T05:54:54;42.35;;;18.17;;
61317;SDS011;47201;40.428;-8.436;2023-09-08T05:56:55;35.47;;;14.07;;
61317;SDS011;47201;40.428;-8.436;2023-09-08T05:58:55;20.45;;;9.90;;
61317;SDS011;47201;40.428;-8.436;2023-09-08T06:00:56;23.02;;;10.55;;
61317;SDS011;47201;40.428;-8.436;2023-09-08T06:02:57;22.42;;;9.50;;
61317;SDS011;47201;40.428;-8.436;2023-09-08T06:04:57;25.60;;;9.90;;
61317;SDS011;47201;40.428;-8.436;2023-09-08T06:06:58;27.30;;;9.93;;
61317;SDS011;47201;40.428;-8.436;2023-09-08T06:08:59;27.73;;;10.77;;
61317;SDS011;47201;40.428;-8.436;2023-09-08T06:11:01;24.20;;;10.48;;
61317;SDS011;47201;40.428;-8.436;2023-09-08T06:13:02;34.13;;;14.52;;
61317;SDS011;47201;40.428;-8.436;2023-09-08T06:15:04;30.77;;;12.93;;
61317;SDS011;47201;40.428;-8.436;2023-09-08T06:17:06;28.52;;;14.13;;
61317;SDS011;47201;40.428;-8.436;2023-09-08T06:19:07;23.38;;;12.77;;
61317;SDS011;47201;40.428;-8.436;2023-09-08T06:21:08;24.95;;;12.75;;
61317;SDS011;47201;40.428;-8.436;2023-09-08T06:25:10;20.73;;;11.87;;
61317;SDS011;47201;40.428;-8.436;2023-09-08T06:27:10;22.67;;;11.43;;
61317;SDS011;47201;40.428;-8.436;2023-09-08T06:29:13;33.83;;;13.68;;
61317;SDS011;47201;40.428;-8.436;2023-09-08T06:31:14;37.83;;;16.13;;
61317;SDS011;47201;40.428;-8.436;2023-09-08T06:33:16;31.25;;;15.52;;
61317;SDS011;47201;40.428;-8.436;2023-09-08T06:35:17;41.97;;;16.08;;
61317;SDS011;47201;40.428;-8.436;2023-09-08T06:37:18;38.33;;;15.55;;
61317;SDS011;47201;40.428;-8.436;2023-09-08T06:39:19;22.45;;;9.93;;
61317;SDS011;47201;40.428;-8.436;2023-09-08T06:43:22;19.60;;;9.93;;
61317;SDS011;47201;40.428;-8.436;2023-09-08T06:45:30;17.05;;;9.30;;
61317;SDS011;47201;40.428;-8.436;2023-09-08T06:47:31;20.88;;;10.18;;
61317;SDS011;47201;40.428;-8.436;2023-09-08T06:49:31;17.95;;;9.95;;
61317;SDS011;47201;40.428;-8.436;2023-09-08T06:51:32;22.05;;;10.77;;
61317;SDS011;47201;40.428;-8.436;2023-09-08T06:53:33;19.95;;;9.52;;
61317;SDS011;47201;40.428;-8.436;2023-09-08T06:55:34;15.52;;;8.20;;
61317;SDS011;47201;40.428;-8.436;2023-09-08T06:57:35;12.57;;;8.00;;
61317;SDS011;47201;40.428;-8.436;2023-09-08T06:59:35;10.50;;;7.55;;
61317;SDS011;47201;40.428;-8.436;2023-09-08T07:01:36;12.65;;;7.22;;
61317;SDS011;47201;40.428;-8.436;2023-09-08T07:03:37;15.18;;;7.22;;
61317;SDS011;47201;40.428;-8.436;2023-09-08T07:05:39;11.57;;;7.32;;
61317;SDS011;47201;40.428;-8.436;2023-09-08T07:07:40;15.80;;;7.45;;
61317;SDS011;47201;40.428;-8.436;2023-09-08T07:09:41;10.18;;;6.55;;
61317;SDS011;47201;40.428;-8.436;2023-09-08T07:11:42;11.32;;;6.95;;
61317;SDS011;47201;40.428;-8.436;2023-09-08T07:13:43;7.63;;;6.35;;
61317;SDS011;47201;40.428;-8.436;2023-09-08T07:15:44;11.93;;;6.18;;
61317;SDS011;47201;40.428;-8.436;2023-09-08T07:17:45;13.50;;;6.03;;
61317;SDS011;47201;40.428;-8.436;2023-09-08T07:19:45;9.55;;;6.03;;
61317;SDS011;47201;40.428;-8.436;2023-09-08T07:23:46;8.43;;;4.87;;
61317;SDS011;47201;40.428;-8.436;2023-09-08T07:25:48;8.25;;;4.72;;
61317;SDS011;47201;40.428;-8.436;2023-09-08T07:27:51;6.50;;;4.53;;
61317;SDS011;47201;40.428;-8.436;2023-09-08T07:29:54;7.22;;;4.55;;
61317;SDS011;47201;40.428;-8.436;2023-09-08T07:31:55;11.80;;;4.68;;
61317;SDS011;47201;40.428;-8.436;2023-09-08T07:33:56;5.97;;;4.20;;
61317;SDS011;47201;40.428;-8.436;2023-09-08T07:35:57;7.07;;;4.13;;
61317;SDS011;47201;40.428;-8.436;2023-09-08T07:37:59;10.57;;;4.32;;
61317;SDS011;47201;40.428;-8.436;2023-09-08T07:39:59;11.82;;;4.22;;
61317;SDS011;47201;40.428;-8.436;2023-09-08T07:42:01;6.43;;;4.07;;
61317;SDS011;47201;40.428;-8.436;2023-09-08T07:44:02;9.45;;;4.60;;
61317;SDS011;47201;40.428;-8.436;2023-09-08T07:46:03;7.68;;;4.40;;
61317;SDS011;47201;40.428;-8.436;2023-09-08T07:48:03;13.82;;;5.47;;
61317;SDS011;47201;40.428;-8.436;2023-09-08T07:50:17;12.85;;;6.13;;
61317;SDS011;47201;40.428;-8.436;2023-09-08T07:52:20;21.27;;;7.78;;
61317;SDS011;47201;40.428;-8.436;2023-09-08T07:54:21;21.80;;;8.20;;
61317;SDS011;47201;40.428;-8.436;2023-09-08T07:56:22;34.20;;;11.88;;
61317;SDS011;47201;40.428;-8.436;2023-09-08T07:58:22;18.70;;;8.90;;
61317;SDS011;47201;40.428;-8.436;2023-09-08T08:00:23;20.58;;;9.70;;
61317;SDS011;47201;40.428;-8.436;2023-09-08T08:02:23;17.92;;;9.13;;
61317;SDS011;47201;40.428;-8.436;2023-09-08T08:04:24;22.77;;;8.88;;
61317;SDS011;47201;40.428;-8.436;2023-09-08T08:06:25;19.13;;;8.43;;
61317;SDS011;47201;40.428;-8.436;2023-09-08T08:08:27;15.35;;;7.50;;
61317;SDS011;47201;40.428;-8.436;2023-09-08T08:10:27;16.48;;;8.43;;
61317;SDS011;47201;40.428;-8.436;2023-09-08T08:12:28;20.63;;;9.43;;
61317;SDS011;47201;40.428;-8.436;2023-09-08T08:14:29;24.58;;;8.68;;
61317;SDS011;47201;40.428;-8.436;2023-09-08T08:16:29;27.05;;;11.60;;
61317;SDS011;47201;40.428;-8.436;2023-09-08T08:18:30;24.23;;;10.25;;
61317;SDS011;47201;40.428;-8.436;2023-09-08T08:20:31;18.30;;;8.32;;
61317;SDS011;47201;40.428;-8.436;2023-09-08T08:22:37;18.58;;;7.00;;
61317;SDS011;47201;40.428;-8.436;2023-09-08T08:24:39;15.52;;;7.38;;
61317;SDS011;47201;40.428;-8.436;2023-09-08T08:26:39;22.70;;;9.52;;
61317;SDS011;47201;40.428;-8.436;2023-09-08T08:28:40;16.13;;;8.15;;
61317;SDS011;47201;40.428;-8.436;2023-09-08T08:30:41;18.70;;;6.35;;
61317;SDS011;47201;40.428;-8.436;2023-09-08T08:32:41;9.15;;;4.90;;
61317;SDS011;47201;40.428;-8.436;2023-09-08T08:34:42;9.68;;;5.50;;
61317;SDS011;47201;40.428;-8.436;2023-09-08T08:36:42;18.85;;;8.90;;
61317;SDS011;47201;40.428;-8.436;2023-09-08T08:38:43;31.05;;;10.18;;
61317;SDS011;47201;40.428;-8.436;2023-09-08T08:40:45;24.00;;;7.85;;
61317;SDS011;47201;40.428;-8.436;2023-09-08T08:42:45;4.88;;;3.80;;
61317;SDS011;47201;40.428;-8.436;2023-09-08T08:44:46;8.15;;;3.80;;
61317;SDS011;47201;40.428;-8.436;2023-09-08T08:46:47;10.75;;;4.28;;
61317;SDS011;47201;40.428;-8.436;2023-09-08T08:48:48;7.90;;;3.90;;
61317;SDS011;47201;40.428;-8.436;2023-09-08T08:50:54;6.05;;;4.00;;
61317;SDS011;47201;40.428;-8.436;2023-09-08T08:52:56;12.45;;;6.10;;
61317;SDS011;47201;40.428;-8.436;2023-09-08T08:54:56;12.77;;;4.05;;
61317;SDS011;47201;40.428;-8.436;2023-09-08T08:56:58;9.45;;;5.43;;
61317;SDS011;47201;40.428;-8.436;2023-09-08T08:59:00;9.55;;;4.43;;
61317;SDS011;47201;40.428;-8.436;2023-09-08T09:01:02;7.00;;;4.43;;
61317;SDS011;47201;40.428;-8.436;2023-09-08T09:03:04;4.05;;;3.72;;
61317;SDS011;47201;40.428;-8.436;2023-09-08T09:05:11;5.38;;;4.55;;
61317;SDS011;47201;40.428;-8.436;2023-09-08T09:07:13;8.68;;;4.25;;
61317;SDS011;47201;40.428;-8.436;2023-09-08T09:09:13;8.77;;;4.80;;
61317;SDS011;47201;40.428;-8.436;2023-09-08T09:11:15;4.80;;;4.20;;
61317;SDS011;47201;40.428;-8.436;2023-09-08T09:13:16;7.47;;;4.60;;
61317;SDS011;47201;40.428;-8.436;2023-09-08T09:15:17;7.28;;;3.35;;
61317;SDS011;47201;40.428;-8.436;2023-09-08T09:17:28;7.40;;;3.80;;
61317;SDS011;47201;40.428;-8.436;2023-09-08T09:19:29;9.60;;;3.85;;
61317;SDS011;47201;40.428;-8.436;2023-09-08T09:21:44;5.45;;;3.85;;
61317;SDS011;47201;40.428;-8.436;2023-09-08T09:23:48;4.10;;;3.70;;
61317;SDS011;47201;40.428;-8.436;2023-09-08T09:25:48;5.53;;;3.75;;
61317;SDS011;47201;40.428;-8.436;2023-09-08T09:27:50;7.57;;;3.90;;
61317;SDS011;47201;40.428;-8.436;2023-09-08T09:29:54;6.10;;;3.88;;
61317;SDS011;47201;40.428;-8.436;2023-09-08T09:32:05;8.80;;;3.60;;
61317;SDS011;47201;40.428;-8.436;2023-09-08T09:34:08;9.45;;;3.80;;
61317;SDS011;47201;40.428;-8.436;2023-09-08T09:36:09;6.55;;;3.95;;
61317;SDS011;47201;40.428;-8.436;2023-09-08T09:38:10;10.02;;;3.90;;
61317;SDS011;47201;40.428;-8.436;2023-09-08T09:40:11;5.40;;;3.80;;
61317;SDS011;47201;40.428;-8.436;2023-09-08T09:42:12;5.60;;;4.32;;
61317;SDS011;47201;40.428;-8.436;2023-09-08T09:44:12;8.52;;;4.20;;
61317;SDS011;47201;40.428;-8.436;2023-09-08T09:46:14;6.95;;;4.45;;
61317;SDS011;47201;40.428;-8.436;2023-09-08T09:48:16;5.55;;;3.47;;
61317;SDS011;47201;40.428;-8.436;2023-09-08T09:50:29;3.95;;;3.58;;
61317;SDS011;47201;40.428;-8.436;2023-09-08T09:52:31;6.07;;;4.03;;
61317;SDS011;47201;40.428;-8.436;2023-09-08T09:54:32;8.18;;;3.90;;
61317;SDS011;47201;40.428;-8.436;2023-09-08T09:56:32;10.00;;;4.10;;
61317;SDS011;47201;40.428;-8.436;2023-09-08T09:58:34;11.52;;;4.35;;
61317;SDS011;47201;40.428;-8.436;2023-09-08T10:00:37;4.30;;;3.97;;
61317;SDS011;47201;40.428;-8.436;2023-09-08T10:02:40;6.80;;;4.72;;
61317;SDS011;47201;40.428;-8.436;2023-09-08T10:04:41;8.63;;;4.13;;
61317;SDS011;47201;40.428;-8.436;2023-09-08T10:06:42;6.88;;;4.15;;
61317;SDS011;47201;40.428;-8.436;2023-09-08T10:08:45;5.38;;;4.00;;
61317;SDS011;47201;40.428;-8.436;2023-09-08T10:10:47;4.38;;;3.97;;
61317;SDS011;47201;40.428;-8.436;2023-09-08T10:12:53;5.70;;;4.20;;
61317;SDS011;47201;40.428;-8.436;2023-09-08T10:14:55;5.07;;;3.75;;
61317;SDS011;47201;40.428;-8.436;2023-09-08T10:16:59;7.75;;;4.32;;
61317;SDS011;47201;40.428;-8.436;2023-09-08T10:19:01;6.63;;;4.60;;
61317;SDS011;47201;40.428;-8.436;2023-09-08T10:21:06;7.93;;;4.18;;
61317;SDS011;47201;40.428;-8.436;2023-09-08T10:23:27;6.03;;;4.10;;
61317;SDS011;47201;40.428;-8.436;2023-09-08T10:25:34;4.65;;;3.85;;
61317;SDS011;47201;40.428;-8.436;2023-09-08T10:27:37;8.48;;;4.05;;
61317;SDS011;47201;40.428;-8.436;2023-09-08T10:29:39;11.00;;;4.10;;
61317;SDS011;47201;40.428;-8.436;2023-09-08T10:31:39;10.27;;;4.15;;
61317;SDS011;47201;40.428;-8.436;2023-09-08T10:33:41;9.00;;;3.85;;
61317;SDS011;47201;40.428;-8.436;2023-09-08T10:35:43;11.98;;;4.43;;
61317;SDS011;47201;40.428;-8.436;2023-09-08T10:37:44;4.45;;;3.70;;
61317;SDS011;47201;40.428;-8.436;2023-09-08T10:39:45;5.80;;;4.43;;
61317;SDS011;47201;40.428;-8.436;2023-09-08T10:41:45;9.55;;;4.50;;
61317;SDS011;47201;40.428;-8.436;2023-09-08T10:43:56;4.18;;;3.72;;
61317;SDS011;47201;40.428;-8.436;2023-09-08T10:46:00;7.82;;;3.38;;
61317;SDS011;47201;40.428;-8.436;2023-09-08T10:48:08;8.77;;;3.50;;
61317;SDS011;47201;40.428;-8.436;2023-09-08T10:50:17;3.10;;;2.90;;
61317;SDS011;47201;40.428;-8.436;2023-09-08T10:52:21;5.95;;;3.45;;
61317;SDS011;47201;40.428;-8.436;2023-09-08T10:54:56;6.97;;;3.13;;
61317;SDS011;47201;40.428;-8.436;2023-09-08T10:56:54;4.80;;;3.75;;
61317;SDS011;47201;40.428;-8.436;2023-09-08T10:58:58;6.28;;;3.63;;
61317;SDS011;47201;40.428;-8.436;2023-09-08T11:01:00;8.77;;;4.07;;
61317;SDS011;47201;40.428;-8.436;2023-09-08T11:03:03;7.78;;;4.30;;
61317;SDS011;47201;40.428;-8.436;2023-09-08T11:05:07;4.00;;;3.10;;
61317;SDS011;47201;40.428;-8.436;2023-09-08T11:07:13;3.30;;;3.10;;
61317;SDS011;47201;40.428;-8.436;2023-09-08T11:09:14;4.18;;;3.30;;
61317;SDS011;47201;40.428;-8.436;2023-09-08T11:11:16;11.40;;;4.07;;
61317;SDS011;47201;40.428;-8.436;2023-09-08T11:13:17;11.38;;;4.47;;
61317;SDS011;47201;40.428;-8.436;2023-09-08T11:15:18;4.32;;;3.30;;
61317;SDS011;47201;40.428;-8.436;2023-09-08T11:17:20;5.60;;;3.35;;
61317;SDS011;47201;40.428;-8.436;2023-09-08T11:19:21;5.60;;;3.50;;
61317;SDS011;47201;40.428;-8.436;2023-09-08T11:21:21;3.65;;;3.30;;
61317;SDS011;47201;40.428;-8.436;2023-09-08T11:23:22;5.20;;;3.40;;
61317;SDS011;47201;40.428;-8.436;2023-09-08T11:25:23;4.00;;;3.60;;
61317;SDS011;47201;40.428;-8.436;2023-09-08T11:27:24;4.47;;;3.67;;
61317;SDS011;47201;40.428;-8.436;2023-09-08T11:29:24;4.18;;;3.60;;
61317;SDS011;47201;40.428;-8.436;2023-09-08T11:31:25;8.18;;;3.10;;
61317;SDS011;47201;40.428;-8.436;2023-09-08T11:33:26;4.50;;;3.35;;
61317;SDS011;47201;40.428;-8.436;2023-09-08T11:35:27;4.20;;;3.80;;
61317;SDS011;47201;40.428;-8.436;2023-09-08T11:37:28;3.78;;;3.38;;
61317;SDS011;47201;40.428;-8.436;2023-09-08T11:39:28;4.35;;;3.58;;
61317;SDS011;47201;40.428;-8.436;2023-09-08T11:41:29;4.00;;;3.70;;
61317;SDS011;47201;40.428;-8.436;2023-09-08T11:43:30;5.80;;;3.40;;
61317;SDS011;47201;40.428;-8.436;2023-09-08T11:45:34;3.50;;;3.20;;
61317;SDS011;47201;40.428;-8.436;2023-09-08T11:47:35;5.47;;;4.03;;
61317;SDS011;47201;40.428;-8.436;2023-09-08T11:49:42;6.18;;;4.43;;
61317;SDS011;47201;40.428;-8.436;2023-09-08T11:51:45;12.65;;;5.05;;
61317;SDS011;47201;40.428;-8.436;2023-09-08T11:53:46;3.20;;;3.00;;
61317;SDS011;47201;40.428;-8.436;2023-09-08T11:55:46;3.30;;;3.00;;
61317;SDS011;47201;40.428;-8.436;2023-09-08T11:57:49;4.43;;;3.38;;
61317;SDS011;47201;40.428;-8.436;2023-09-08T11:59:54;3.40;;;3.10;;
61317;SDS011;47201;40.428;-8.436;2023-09-08T12:01:56;3.53;;;3.22;;
61317;SDS011;47201;40.428;-8.436;2023-09-08T12:03:57;8.90;;;3.25;;
61317;SDS011;47201;40.428;-8.436;2023-09-08T12:06:00;5.43;;;3.42;;
61317;SDS011;47201;40.428;-8.436;2023-09-08T12:08:03;4.03;;;3.70;;
61317;SDS011;47201;40.428;-8.436;2023-09-08T12:10:10;6.72;;;2.97;;
61317;SDS011;47201;40.428;-8.436;2023-09-08T12:12:12;4.22;;;3.70;;
61317;SDS011;47201;40.428;-8.436;2023-09-08T12:14:13;6.63;;;3.50;;
61317;SDS011;47201;40.428;-8.436;2023-09-08T12:16:18;3.88;;;3.55;;
61317;SDS011;47201;40.428;-8.436;2023-09-08T12:18:20;3.88;;;3.67;;
61317;SDS011;47201;40.428;-8.436;2023-09-08T12:20:38;4.00;;;3.60;;
61317;SDS011;47201;40.428;-8.436;2023-09-08T12:22:46;5.63;;;3.78;;
61317;SDS011;47201;40.428;-8.436;2023-09-08T12:24:50;4.07;;;3.78;;
61317;SDS011;47201;40.428;-8.436;2023-09-08T12:26:57;4.03;;;3.72;;
61317;SDS011;47201;40.428;-8.436;2023-09-08T12:28:58;3.72;;;3.42;;
61317;SDS011;47201;40.428;-8.436;2023-09-08T12:30:58;6.90;;;4.07;;